Time;durP1;ratioP1;P1;durP2;ratioP2;P2;SDS_P1;SDS_P2;PMS_P1;PMS_P2;Temp;Humidity;BMP_temperature;BMP_pressure;BME280_temperature;BME280_humidity;BME280_pressure;Samples;Min_cycle;Max_cycle;Signal;HPM_P1;HPM_P2
2023/05/24 00:01:26;;;;;;;14.90;4.35;;;11.90;98.40;;;;;;4801249;29;20046;-83
2023/05/24 00:03:52;;;;;;;12.77;3.85;;;11.90;98.50;;;;;;4790500;29;20070;-83
2023/05/24 00:06:21;;;;;;;16.33;4.35;;;11.90;98.40;;;;;;4789240;29;20043;-83
2023/05/24 00:08:46;;;;;;;18.10;4.28;;;11.90;98.50;;;;;;4788512;29;20074;-83
2023/05/24 00:11:12;;;;;;;17.92;4.10;;;11.80;98.50;;;;;;4805711;29;20444;-82
2023/05/24 00:13:38;;;;;;;18.88;4.28;;;11.90;98.50;;;;;;4789130;29;20154;-83
2023/05/24 00:16:04;;;;;;;12.88;3.90;;;11.80;98.60;;;;;;4798619;29;20069;-83
2023/05/24 00:18:30;;;;;;;14.30;4.05;;;11.70;98.60;;;;;;4805616;29;20434;-83
2023/05/24 00:20:57;;;;;;;15.93;4.20;;;11.80;98.70;;;;;;4805273;29;20039;-83
2023/05/24 00:23:24;;;;;;;15.00;3.85;;;11.80;98.60;;;;;;4788295;29;20054;-83
2023/05/24 00:25:50;;;;;;;15.35;4.25;;;11.80;98.60;;;;;;4804924;29;20194;-83
2023/05/24 00:28:16;;;;;;;17.10;4.22;;;11.70;98.60;;;;;;4823546;29;20157;-83
2023/05/24 00:30:41;;;;;;;13.77;4.00;;;11.70;98.60;;;;;;4817511;29;20043;-83
2023/05/24 00:33:07;;;;;;;12.45;3.75;;;11.70;98.50;;;;;;4805067;29;20086;-83
2023/05/24 00:35:33;;;;;;;13.88;4.00;;;11.70;98.50;;;;;;4789079;29;20051;-83
2023/05/24 00:37:58;;;;;;;18.25;4.10;;;11.70;98.30;;;;;;4806782;29;20046;-83
2023/05/24 00:40:24;;;;;;;15.32;4.10;;;11.70;98.30;;;;;;4819709;29;20043;-83
2023/05/24 00:42:49;;;;;;;17.90;4.32;;;11.60;98.10;;;;;;4815695;29;20519;-83
2023/05/24 00:45:15;;;;;;;15.13;4.15;;;11.60;98.00;;;;;;4802726;29;20058;-83
2023/05/24 00:47:41;;;;;;;12.98;3.70;;;11.70;98.10;;;;;;4792383;29;20487;-83
2023/05/24 00:50:11;;;;;;;18.13;4.32;;;11.50;98.10;;;;;;4794263;29;20061;-83
2023/05/24 00:52:38;;;;;;;12.07;3.85;;;11.50;98.20;;;;;;4806841;29;20084;-84
2023/05/24 00:55:04;;;;;;;16.10;4.38;;;11.50;98.40;;;;;;4819525;29;20046;-83
2023/05/24 00:57:30;;;;;;;16.20;3.95;;;11.50;98.50;;;;;;4808183;29;20053;-83
2023/05/24 00:59:56;;;;;;;11.95;3.72;;;11.50;98.50;;;;;;4818942;29;20055;-83
2023/05/24 01:02:21;;;;;;;14.57;4.03;;;11.40;98.30;;;;;;4838669;29;20035;-84
2023/05/24 01:04:47;;;;;;;14.90;4.10;;;11.40;98.20;;;;;;4825555;29;20042;-83
2023/05/24 01:07:44;;;;;;;13.57;4.18;;;11.40;98.20;;;;;;4825336;29;20419;-83
2023/05/24 01:10:30;;;;;;;14.38;3.83;;;11.40;98.30;;;;;;4832295;29;20098;-83
2023/05/24 01:13:09;;;;;;;14.32;4.00;;;11.30;98.30;;;;;;4827344;29;20058;-83
2023/05/24 01:15:59;;;;;;;16.25;4.50;;;11.30;98.30;;;;;;4829294;29;20053;-83
2023/05/24 01:18:31;;;;;;;18.55;4.22;;;11.30;98.10;;;;;;4844031;29;20113;-83
2023/05/24 01:21:10;;;;;;;16.97;4.07;;;11.30;98.10;;;;;;4843881;29;20137;-83
2023/05/24 01:24:06;;;;;;;13.77;4.10;;;11.20;98.10;;;;;;4840689;29;20386;-83
2023/05/24 01:26:44;;;;;;;12.80;4.00;;;11.20;97.80;;;;;;4823903;29;20404;-83
2023/05/24 01:29:11;;;;;;;16.67;4.28;;;11.20;97.90;;;;;;4839415;29;20092;-83
2023/05/24 01:31:37;;;;;;;15.45;4.25;;;11.10;97.70;;;;;;4831687;29;20050;-83
2023/05/24 01:34:03;;;;;;;14.35;3.72;;;11.10;97.60;;;;;;4842090;29;20046;-83
2023/05/24 01:36:28;;;;;;;14.00;4.13;;;11.10;97.60;;;;;;4838778;29;20070;-83
2023/05/24 01:38:54;;;;;;;13.85;4.10;;;11.10;97.70;;;;;;4836005;29;20487;-83
2023/05/24 01:41:32;;;;;;;14.18;3.78;;;11.10;97.70;;;;;;4843645;29;20491;-83
2023/05/24 01:44:22;;;;;;;18.77;4.10;;;11.00;97.70;;;;;;4824164;29;20407;-83
2023/05/24 01:46:59;;;;;;;14.27;3.92;;;11.00;97.40;;;;;;4838499;29;20050;-83
2023/05/24 01:49:33;;;;;;;13.65;4.50;;;10.90;97.40;;;;;;4828525;29;20115;-83
2023/05/24 01:52:11;;;;;;;15.98;4.18;;;10.90;97.40;;;;;;4826588;29;20559;-83
2023/05/24 01:54:41;;;;;;;13.02;3.75;;;10.90;97.40;;;;;;4841591;29;20402;-83
2023/05/24 01:57:09;;;;;;;14.35;4.05;;;10.90;97.50;;;;;;4832108;29;20062;-83
2023/05/24 01:59:35;;;;;;;14.30;3.90;;;10.90;97.70;;;;;;4820202;29;20062;-83
2023/05/24 02:02:01;;;;;;;14.95;4.00;;;10.80;97.60;;;;;;4834152;29;20102;-83
2023/05/24 02:04:27;;;;;;;19.00;4.95;;;10.80;97.80;;;;;;4854876;29;20050;-83
2023/05/24 02:06:53;;;;;;;13.88;4.10;;;10.80;97.60;;;;;;4824094;29;20106;-83
2023/05/24 02:09:18;;;;;;;12.45;4.25;;;10.80;98.00;;;;;;4842619;29;20043;-83
2023/05/24 02:11:44;;;;;;;14.30;4.28;;;10.70;98.30;;;;;;4823815;29;20494;-82
2023/05/24 02:14:10;;;;;;;14.38;4.30;;;10.70;98.50;;;;;;4825259;29;20050;-83
2023/05/24 02:16:41;;;;;;;10.93;3.83;;;10.80;98.60;;;;;;4835203;29;20495;-83
2023/05/24 02:19:07;;;;;;;13.70;3.63;;;10.70;98.70;;;;;;4843028;29;20128;-83
2023/05/24 02:21:33;;;;;;;21.70;4.70;;;10.70;98.50;;;;;;4843458;29;20060;-83
2023/05/24 02:23:59;;;;;;;13.43;4.32;;;10.70;98.30;;;;;;4825560;29;20039;-82
2023/05/24 02:26:25;;;;;;;14.30;4.00;;;10.70;98.50;;;;;;4823823;29;20046;-83
2023/05/24 02:28:50;;;;;;;13.35;3.88;;;10.70;98.70;;;;;;4823539;29;20411;-84
2023/05/24 02:31:16;;;;;;;13.77;3.90;;;10.70;98.70;;;;;;4831835;29;20046;-83
2023/05/24 02:33:42;;;;;;;18.92;4.45;;;10.70;98.70;;;;;;4842363;29;20479;-83
2023/05/24 02:36:08;;;;;;;13.35;3.92;;;10.70;98.70;;;;;;4840226;29;20038;-83
2023/05/24 02:38:33;;;;;;;14.48;3.88;;;10.70;98.80;;;;;;4841630;29;20054;-83
2023/05/24 02:40:59;;;;;;;12.20;4.13;;;10.70;98.70;;;;;;4835452;29;20054;-83
2023/05/24 02:43:25;;;;;;;13.82;4.25;;;10.70;98.70;;;;;;4820913;29;20051;-83
2023/05/24 02:45:50;;;;;;;15.15;4.32;;;10.70;98.80;;;;;;4829830;29;20057;-83
2023/05/24 02:48:16;;;;;;;14.65;3.63;;;10.70;98.60;;;;;;4842690;29;20126;-83
2023/05/24 02:50:41;;;;;;;16.15;3.75;;;10.60;98.50;;;;;;4841708;29;20514;-83
2023/05/24 02:53:07;;;;;;;14.60;3.78;;;10.60;98.60;;;;;;4840213;29;20125;-83
2023/05/24 02:55:33;;;;;;;14.70;4.20;;;10.60;98.70;;;;;;4836291;29;20050;-83
2023/05/24 02:57:58;;;;;;;14.52;3.92;;;10.60;98.80;;;;;;4825533;29;20058;-83
2023/05/24 03:00:24;;;;;;;13.95;4.10;;;10.60;98.80;;;;;;4823362;29;20395;-84
2023/05/24 03:02:51;;;;;;;17.75;4.30;;;10.60;98.60;;;;;;4824219;29;20179;-83
2023/05/24 03:05:17;;;;;;;12.52;4.03;;;10.60;98.50;;;;;;4821145;29;20053;-84
2023/05/24 03:07:43;;;;;;;14.43;4.07;;;10.60;98.40;;;;;;4822994;29;20050;-83
2023/05/24 03:10:09;;;;;;;13.30;4.53;;;10.60;98.50;;;;;;4823179;29;20049;-83
2023/05/24 03:12:35;;;;;;;14.60;3.78;;;10.60;98.50;;;;;;4817586;29;20408;-84
2023/05/24 03:15:00;;;;;;;17.58;4.30;;;10.50;98.50;;;;;;4821922;29;20038;-83
2023/05/24 03:17:26;;;;;;;12.50;3.60;;;10.50;98.40;;;;;;4821816;29;20490;-83
2023/05/24 03:19:51;;;;;;;12.52;3.60;;;10.50;98.40;;;;;;4821082;29;20050;-83
2023/05/24 03:22:18;;;;;;;14.10;3.78;;;10.50;98.50;;;;;;4822015;29;20074;-84
2023/05/24 03:24:45;;;;;;;11.88;4.25;;;10.50;98.50;;;;;;4818769;29;20061;-84
2023/05/24 03:27:10;;;;;;;13.05;3.70;;;10.50;98.40;;;;;;4837357;29;20082;-83
2023/05/24 03:29:36;;;;;;;14.50;3.80;;;10.40;98.60;;;;;;4823744;29;20046;-84
2023/05/24 03:32:02;;;;;;;15.57;3.85;;;10.50;98.70;;;;;;4826907;29;20046;-83
2023/05/24 03:34:29;;;;;;;13.55;3.85;;;10.40;98.80;;;;;;4823105;29;20061;-84
2023/05/24 03:36:54;;;;;;;13.43;3.65;;;10.40;98.80;;;;;;4839113;29;20098;-83
2023/05/24 03:39:20;;;;;;;12.48;3.65;;;10.40;98.80;;;;;;4821339;29;20042;-84
2023/05/24 03:41:45;;;;;;;13.80;3.90;;;10.40;98.90;;;;;;4824176;29;20372;-85
2023/05/24 03:44:12;;;;;;;14.40;3.90;;;10.40;99.00;;;;;;4822559;29;20042;-85
2023/05/24 03:46:37;;;;;;;12.90;4.53;;;10.40;99.00;;;;;;4834881;29;20396;-85
2023/05/24 03:49:03;;;;;;;13.30;3.92;;;10.50;99.10;;;;;;4838368;29;20057;-93
2023/05/24 03:51:29;;;;;;;14.00;3.67;;;10.40;99.00;;;;;;4842613;29;20049;-91
2023/05/24 03:53:57;;;;;;;11.68;3.60;;;10.40;98.70;;;;;;4856080;29;20038;-90
2023/05/24 03:56:25;;;;;;;12.35;3.55;;;10.40;98.50;;;;;;4806341;29;20051;-92
2023/05/24 03:58:51;;;;;;;15.43;4.28;;;10.40;98.80;;;;;;4806300;29;20477;-84
2023/05/24 04:01:18;;;;;;;10.52;3.22;;;10.40;98.90;;;;;;4823724;29;20133;-82
2023/05/24 04:03:44;;;;;;;12.35;3.15;;;10.40;99.00;;;;;;4835739;29;20062;-83
2023/05/24 04:06:11;;;;;;;12.50;3.50;;;10.40;98.80;;;;;;4826958;29;20519;-84
2023/05/24 04:08:36;;;;;;;11.20;3.45;;;10.40;99.10;;;;;;4836964;29;20094;-83
2023/05/24 04:11:02;;;;;;;12.43;3.33;;;10.30;98.60;;;;;;4820333;29;20133;-83
2023/05/24 04:13:28;;;;;;;12.35;3.58;;;10.30;98.50;;;;;;4827108;29;20501;-85
2023/05/24 04:15:53;;;;;;;20.15;3.65;;;10.30;98.30;;;;;;4826503;29;20526;-85
2023/05/24 04:18:19;;;;;;;11.43;3.40;;;10.30;98.10;;;;;;4827341;29;20045;-85
2023/05/24 04:20:44;;;;;;;14.80;3.88;;;10.30;98.30;;;;;;4827174;29;20066;-84
2023/05/24 04:23:10;;;;;;;14.73;3.78;;;10.30;98.50;;;;;;4826847;29;20050;-84
2023/05/24 04:25:36;;;;;;;17.27;4.03;;;10.30;98.20;;;;;;4825748;29;20083;-84
2023/05/24 04:28:02;;;;;;;15.40;4.57;;;10.30;98.10;;;;;;4825535;29;20050;-84
2023/05/24 04:30:29;;;;;;;12.85;3.63;;;10.30;98.10;;;;;;4808412;29;20051;-84
2023/05/24 04:32:56;;;;;;;13.38;3.47;;;10.30;98.30;;;;;;4807508;29;20115;-84
2023/05/24 04:35:22;;;;;;;18.27;4.20;;;10.30;98.30;;;;;;4808020;29;20062;-84
2023/05/24 04:37:49;;;;;;;14.32;3.97;;;10.30;98.30;;;;;;4806936;29;20042;-84
2023/05/24 04:40:23;;;;;;;12.23;3.28;;;10.30;98.40;;;;;;4807960;29;20561;-84
2023/05/24 04:42:49;;;;;;;11.90;3.40;;;10.30;98.40;;;;;;4808380;29;20051;-84
2023/05/24 04:45:15;;;;;;;12.57;3.50;;;10.30;98.50;;;;;;4837748;29;20520;-84
2023/05/24 04:47:41;;;;;;;15.48;3.85;;;10.30;98.50;;;;;;4808355;29;20090;-84
2023/05/24 04:50:07;;;;;;;13.15;3.80;;;10.40;98.40;;;;;;4808757;29;20058;-85
2023/05/24 04:52:35;;;;;;;19.10;4.03;;;10.30;98.30;;;;;;4808052;29;20047;-85
2023/05/24 04:55:01;;;;;;;10.48;3.20;;;10.30;98.40;;;;;;4838077;29;20051;-84
2023/05/24 04:57:27;;;;;;;14.82;3.88;;;10.40;98.30;;;;;;4807458;29;20089;-84
2023/05/24 04:59:53;;;;;;;14.10;3.22;;;10.40;98.30;;;;;;4808521;29;20516;-84
2023/05/24 05:02:18;;;;;;;20.73;4.10;;;10.40;98.30;;;;;;4807259;29;20420;-85
2023/05/24 05:04:44;;;;;;;15.02;3.92;;;10.40;98.40;;;;;;4807053;29;20409;-84
2023/05/24 05:07:09;;;;;;;17.00;4.18;;;10.40;98.40;;;;;;4808322;29;20051;-84
2023/05/24 05:09:35;;;;;;;16.75;4.28;;;10.40;98.50;;;;;;4807939;29;20054;-84
2023/05/24 05:12:01;;;;;;;14.23;3.55;;;10.40;98.50;;;;;;4825545;29;20065;-84
2023/05/24 05:14:27;;;;;;;17.02;4.07;;;10.50;98.50;;;;;;4828230;29;20054;-84
2023/05/24 05:16:53;;;;;;;20.73;3.65;;;10.50;98.60;;;;;;4824976;29;20415;-85
2023/05/24 05:19:19;;;;;;;15.60;3.38;;;10.50;98.60;;;;;;4824362;29;20053;-84
2023/05/24 05:21:44;;;;;;;14.82;3.25;;;10.50;98.70;;;;;;4825293;29;20191;-85
2023/05/24 05:24:10;;;;;;;17.83;4.05;;;10.50;98.90;;;;;;4825250;29;20053;-84
2023/05/24 05:26:36;;;;;;;24.20;3.90;;;10.60;98.90;;;;;;4825646;29;20469;-85
2023/05/24 05:29:04;;;;;;;14.55;3.60;;;10.60;99.10;;;;;;4827672;29;20134;-84
2023/05/24 05:31:30;;;;;;;15.43;3.58;;;10.60;99.00;;;;;;4824522;29;20053;-84
2023/05/24 05:33:55;;;;;;;15.77;3.72;;;10.60;99.10;;;;;;4808043;29;20055;-84
2023/05/24 05:36:21;;;;;;;22.30;4.30;;;10.60;99.10;;;;;;4808217;29;20039;-84
2023/05/24 05:38:47;;;;;;;14.52;3.25;;;10.70;99.20;;;;;;4807470;29;20051;-84
2023/05/24 05:41:12;;;;;;;16.95;3.97;;;10.70;99.30;;;;;;4807334;29;20104;-84
2023/05/24 05:43:38;;;;;;;16.08;4.40;;;10.70;99.20;;;;;;4807818;29;20047;-84
2023/05/24 05:46:04;;;;;;;20.02;4.38;;;10.80;99.30;;;;;;4808125;29;20047;-85
2023/05/24 05:48:29;;;;;;;17.55;4.18;;;10.80;99.30;;;;;;4820460;29;20448;-84
2023/05/24 05:50:56;;;;;;;17.83;4.07;;;10.80;99.30;;;;;;4825399;29;20492;-84
2023/05/24 05:53:22;;;;;;;15.10;3.65;;;10.80;99.30;;;;;;4826112;29;20102;-84
2023/05/24 05:55:48;;;;;;;20.17;4.43;;;10.80;99.20;;;;;;4824627;29;20392;-84
2023/05/24 05:58:13;;;;;;;14.88;3.78;;;10.90;99.30;;;;;;4824571;29;20058;-84
2023/05/24 06:00:39;;;;;;;19.20;3.88;;;10.90;99.30;;;;;;4824911;29;20042;-85
2023/05/24 06:03:05;;;;;;;19.73;4.07;;;10.90;99.30;;;;;;4823614;29;20078;-85
2023/05/24 06:05:31;;;;;;;12.90;3.47;;;10.90;99.20;;;;;;4824047;29;20046;-85
2023/05/24 06:07:56;;;;;;;17.80;3.78;;;10.90;99.20;;;;;;4823513;29;20403;-84
2023/05/24 06:10:22;;;;;;;18.92;3.78;;;11.00;99.20;;;;;;4807467;29;20047;-85
2023/05/24 06:12:47;;;;;;;17.13;3.88;;;11.00;99.20;;;;;;4808134;29;20137;-84
2023/05/24 06:15:13;;;;;;;19.48;4.22;;;11.00;99.30;;;;;;4817777;29;20385;-85
2023/05/24 06:17:40;;;;;;;17.27;3.50;;;11.00;99.30;;;;;;4807167;29;20047;-85
2023/05/24 06:20:09;;;;;;;17.17;4.10;;;11.10;99.30;;;;;;4822296;29;20416;-85
2023/05/24 06:22:37;;;;;;;21.73;4.20;;;11.10;99.30;;;;;;4823571;29;20050;-85
2023/05/24 06:25:04;;;;;;;15.95;3.40;;;11.10;99.40;;;;;;4816358;29;20412;-86
2023/05/24 06:27:29;;;;;;;19.15;4.15;;;11.10;99.40;;;;;;4807072;29;20058;-86
2023/05/24 06:29:55;;;;;;;15.90;3.90;;;11.10;99.20;;;;;;4836085;29;20103;-84
2023/05/24 06:32:20;;;;;;;17.58;3.60;;;11.20;99.20;;;;;;4812917;29;20045;-84
2023/05/24 06:34:46;;;;;;;23.13;4.25;;;11.20;99.10;;;;;;4806130;29;20099;-84
2023/05/24 06:37:13;;;;;;;17.13;3.92;;;11.30;99.10;;;;;;4805060;29;20051;-84
2023/05/24 06:39:39;;;;;;;28.52;5.03;;;11.30;99.00;;;;;;4805535;29;20043;-83
2023/05/24 06:42:05;;;;;;;18.17;3.83;;;11.30;99.10;;;;;;4807966;29;20520;-84
2023/05/24 06:44:33;;;;;;;18.73;3.78;;;11.40;99.10;;;;;;4835244;29;20083;-84
2023/05/24 06:47:00;;;;;;;19.25;4.25;;;11.40;98.90;;;;;;4818084;29;20039;-84
2023/05/24 06:49:25;;;;;;;19.15;3.70;;;11.50;98.70;;;;;;4804836;29;20103;-83
2023/05/24 06:51:51;;;;;;;20.25;4.25;;;11.50;98.60;;;;;;4809906;29;20817;-84
2023/05/24 06:54:17;;;;;;;23.15;4.20;;;11.60;98.60;;;;;;4823833;29;20053;-84
2023/05/24 06:56:43;;;;;;;17.50;4.00;;;11.60;98.40;;;;;;4820007;29;20045;-83
2023/05/24 06:59:08;;;;;;;21.60;4.53;;;11.60;98.10;;;;;;4836979;29;20481;-83
2023/05/24 07:01:38;;;;;;;18.63;3.90;;;11.70;97.90;;;;;;4806770;29;20123;-83
2023/05/24 07:04:06;;;;;;;28.88;4.50;;;11.70;97.70;;;;;;4834224;29;20484;-84
2023/05/24 07:06:32;;;;;;;25.08;4.40;;;11.80;97.60;;;;;;4815958;29;20046;-85
2023/05/24 07:08:58;;;;;;;23.92;4.47;;;11.80;97.50;;;;;;4814823;29;20050;-84
2023/05/24 07:11:23;;;;;;;20.80;3.45;;;11.80;97.30;;;;;;4822875;29;20191;-83
2023/05/24 07:13:49;;;;;;;16.52;3.40;;;11.90;97.20;;;;;;4823361;29;20057;-83
2023/05/24 07:16:15;;;;;;;19.98;3.20;;;11.90;97.10;;;;;;4823350;29;20057;-81
2023/05/24 07:18:40;;;;;;;18.35;3.75;;;12.00;97.10;;;;;;4822473;29;20526;-84
2023/05/24 07:21:06;;;;;;;18.70;3.33;;;12.00;96.90;;;;;;4824715;29;20460;-84
2023/05/24 07:23:33;;;;;;;20.35;3.85;;;12.10;96.70;;;;;;4824640;29;20043;-84
2023/05/24 07:25:58;;;;;;;19.05;3.88;;;12.10;96.40;;;;;;4822133;29;20134;-84
2023/05/24 07:28:24;;;;;;;13.25;3.35;;;12.10;96.40;;;;;;4824476;29;20116;-83
2023/05/24 07:30:50;;;;;;;16.48;3.65;;;12.20;96.30;;;;;;4820649;29;20047;-83
2023/05/24 07:33:16;;;;;;;21.23;3.63;;;12.30;96.40;;;;;;4805439;29;20051;-84
2023/05/24 07:35:41;;;;;;;14.98;3.17;;;12.30;96.00;;;;;;4805524;29;20408;-84
2023/05/24 07:38:07;;;;;;;19.13;3.53;;;12.30;95.80;;;;;;4805059;29;20139;-84
2023/05/24 07:40:33;;;;;;;15.82;2.95;;;12.30;95.60;;;;;;4804044;29;20046;-83
2023/05/24 07:42:58;;;;;;;13.98;3.10;;;12.40;95.30;;;;;;4806251;29;20145;-84
2023/05/24 07:45:24;;;;;;;17.60;3.78;;;12.40;95.30;;;;;;4807056;29;20042;-83
2023/05/24 07:47:50;;;;;;;14.13;3.03;;;12.50;95.30;;;;;;4803874;29;20138;-84
2023/05/24 07:50:16;;;;;;;17.48;3.50;;;12.50;95.30;;;;;;4805820;29;20081;-85
2023/05/24 07:52:41;;;;;;;18.00;3.15;;;12.60;95.50;;;;;;4805209;29;20086;-84
2023/05/24 07:55:07;;;;;;;16.15;3.40;;;12.60;95.20;;;;;;4805961;29;20050;-84
2023/05/24 07:57:33;;;;;;;14.93;3.65;;;12.70;95.10;;;;;;4805603;29;20059;-83
2023/05/24 08:00:05;;;;;;;15.27;3.28;;;12.80;95.00;;;;;;4806340;29;20454;-84
2023/05/24 08:02:32;;;;;;;16.25;3.08;;;12.90;94.50;;;;;;4804692;29;20053;-84
2023/05/24 08:04:58;;;;;;;16.17;3.28;;;12.90;94.80;;;;;;4804708;29;20047;-84
2023/05/24 08:07:23;;;;;;;10.43;2.88;;;12.90;94.60;;;;;;4805502;29;20454;-84
2023/05/24 08:09:49;;;;;;;17.35;3.30;;;12.90;94.70;;;;;;4804457;29;20054;-85
2023/05/24 08:12:15;;;;;;;19.80;3.85;;;13.00;94.40;;;;;;4804651;29;20407;-84
2023/05/24 08:14:40;;;;;;;16.00;3.00;;;13.10;94.40;;;;;;4808737;29;20104;-84
2023/05/24 08:17:06;;;;;;;24.23;4.30;;;13.10;94.00;;;;;;4813096;29;20126;-84
2023/05/24 08:19:34;;;;;;;14.85;3.38;;;13.20;93.90;;;;;;4810507;29;20142;-86
2023/05/24 08:22:03;;;;;;;17.77;3.58;;;13.20;94.10;;;;;;4823465;29;20046;-84
2023/05/24 08:24:30;;;;;;;16.63;3.42;;;13.30;93.90;;;;;;4822508;29;20057;-84
2023/05/24 08:26:56;;;;;;;14.10;3.10;;;13.30;93.70;;;;;;4823621;29;20638;-84
2023/05/24 08:29:21;;;;;;;14.35;3.03;;;13.30;93.50;;;;;;4821361;29;20038;-84
2023/05/24 08:31:47;;;;;;;12.70;2.95;;;13.30;93.20;;;;;;4822281;29;20054;-84
2023/05/24 08:34:13;;;;;;;14.43;3.10;;;13.30;93.00;;;;;;4823859;29;20058;-84
2023/05/24 08:36:39;;;;;;;16.98;3.78;;;13.40;93.10;;;;;;4813023;29;20047;-84
2023/05/24 08:39:05;;;;;;;17.77;3.25;;;13.40;93.10;;;;;;4804306;29;20051;-83
2023/05/24 08:41:36;;;;;;;18.83;3.70;;;13.40;93.20;;;;;;4806562;29;20043;-84
2023/05/24 08:44:06;;;;;;;18.02;3.88;;;13.30;93.30;;;;;;4805142;29;20070;-83
2023/05/24 08:46:34;;;;;;;13.82;3.30;;;13.40;93.70;;;;;;4837275;29;20053;-83
2023/05/24 08:49:02;;;;;;;13.70;3.05;;;13.40;94.00;;;;;;4811882;29;20555;-83
2023/05/24 08:51:29;;;;;;;12.13;3.25;;;13.40;93.40;;;;;;4822166;29;20495;-83
2023/05/24 08:54:00;;;;;;;14.82;3.75;;;13.50;93.60;;;;;;4820903;29;20086;-84
2023/05/24 08:56:26;;;;;;;11.88;3.17;;;13.50;93.80;;;;;;4822153;29;20130;-84
2023/05/24 08:58:53;;;;;;;30.60;4.63;;;13.50;94.00;;;;;;4823602;29;20062;-84
2023/05/24 09:01:20;;;;;;;32.65;5.05;;;13.60;93.90;;;;;;4826897;29;20411;-84
2023/05/24 09:03:46;;;;;;;26.67;3.83;;;13.60;93.60;;;;;;4820369;29;20072;-84
2023/05/24 09:06:17;;;;;;;14.23;2.95;;;13.70;93.70;;;;;;4825781;29;20433;-84
2023/05/24 09:08:44;;;;;;;17.95;3.40;;;13.70;93.60;;;;;;4825655;29;20074;-83
2023/05/24 09:11:10;;;;;;;13.15;2.97;;;13.80;93.30;;;;;;4824465;29;20049;-84
2023/05/24 09:13:36;;;;;;;13.77;2.88;;;13.80;93.20;;;;;;4823897;29;20477;-85
2023/05/24 09:16:02;;;;;;;17.42;3.47;;;13.90;92.70;;;;;;4824842;29;20050;-83
2023/05/24 09:18:28;;;;;;;13.05;3.20;;;13.90;92.60;;;;;;4825576;29;20050;-84
2023/05/24 09:20:54;;;;;;;17.45;2.90;;;13.90;92.90;;;;;;4824552;29;20472;-83
2023/05/24 09:23:19;;;;;;;12.00;2.85;;;14.10;93.10;;;;;;4826193;29;20407;-83
2023/05/24 09:25:46;;;;;;;19.83;3.45;;;14.20;92.90;;;;;;4824043;29;20129;-83
2023/05/24 09:28:14;;;;;;;11.23;2.75;;;14.20;92.80;;;;;;4824045;29;20133;-83
2023/05/24 09:30:44;;;;;;;11.65;2.75;;;14.30;92.00;;;;;;4826774;29;20125;-82
2023/05/24 09:33:12;;;;;;;12.88;3.17;;;14.40;91.90;;;;;;4825284;29;20054;-83
2023/05/24 09:35:41;;;;;;;13.30;2.70;;;14.50;91.60;;;;;;4824812;29;20062;-83
2023/05/24 09:38:17;;;;;;;10.85;2.97;;;14.50;90.90;;;;;;4823930;29;20050;-82
2023/05/24 09:40:43;;;;;;;13.27;2.75;;;14.60;91.90;;;;;;4824714;29;20065;-83
2023/05/24 09:43:09;;;;;;;14.43;3.15;;;14.60;91.80;;;;;;4824195;29;20498;-82
2023/05/24 09:45:47;;;;;;;10.02;2.72;;;14.70;91.80;;;;;;4824151;29;20039;-82
2023/05/24 09:48:15;;;;;;;14.88;3.25;;;14.70;91.70;;;;;;4822775;29;20050;-82
2023/05/24 09:50:41;;;;;;;14.77;3.03;;;14.80;91.90;;;;;;4824862;29;20043;-82
2023/05/24 09:53:07;;;;;;;11.65;2.83;;;14.80;92.10;;;;;;4823074;29;20118;-83
2023/05/24 09:55:36;;;;;;;10.65;2.55;;;14.80;92.00;;;;;;4825685;29;20046;-84
2023/05/24 09:58:07;;;;;;;12.75;2.95;;;14.90;91.20;;;;;;4825623;29;20067;-84
2023/05/24 10:00:35;;;;;;;10.52;2.95;;;15.00;91.10;;;;;;4808592;29;20449;-83
2023/05/24 10:03:03;;;;;;;13.18;2.72;;;15.00;91.30;;;;;;4809233;29;20054;-83
2023/05/24 10:05:29;;;;;;;10.68;2.78;;;15.10;90.60;;;;;;4825731;29;20050;-83
2023/05/24 10:07:57;;;;;;;10.68;2.47;;;15.10;90.90;;;;;;4808756;29;20079;-83
2023/05/24 10:10:28;;;;;;;10.82;2.60;;;15.20;91.20;;;;;;4824927;29;20042;-83
2023/05/24 10:12:55;;;;;;;13.27;2.75;;;15.10;91.40;;;;;;4809262;29;20058;-83
2023/05/24 10:15:21;;;;;;;18.63;3.38;;;15.20;91.40;;;;;;4808681;29;20188;-82
2023/05/24 10:17:47;;;;;;;11.88;2.70;;;15.20;90.90;;;;;;4810144;29;20141;-83
2023/05/24 10:20:13;;;;;;;11.43;3.47;;;15.20;90.30;;;;;;4809455;29;20043;-84
2023/05/24 10:22:46;;;;;;;12.00;2.88;;;15.20;90.70;;;;;;4824783;29;20049;-84
2023/05/24 10:25:26;;;;;;;15.15;3.13;;;15.30;90.30;;;;;;4809050;29;20046;-85
2023/05/24 10:27:56;;;;;;;12.35;2.85;;;15.20;90.00;;;;;;4808241;29;20528;-83
2023/05/24 10:30:36;;;;;;;9.57;2.60;;;15.30;90.00;;;;;;4809082;29;20057;-83
2023/05/24 10:33:05;;;;;;;12.15;2.92;;;15.30;90.30;;;;;;4808819;29;20051;-84
2023/05/24 10:35:31;;;;;;;11.88;2.65;;;15.30;90.30;;;;;;4824712;29;20094;-84
2023/05/24 10:37:57;;;;;;;9.15;2.60;;;15.40;90.80;;;;;;4808899;29;20061;-84
2023/05/24 10:40:24;;;;;;;11.70;2.70;;;15.50;90.80;;;;;;4809268;29;20475;-85
2023/05/24 10:42:53;;;;;;;10.27;2.55;;;15.50;89.60;;;;;;4807650;29;20511;-84
2023/05/24 10:45:30;;;;;;;10.77;2.78;;;15.60;88.20;;;;;;4825264;29;20062;-84
2023/05/24 10:47:56;;;;;;;9.43;2.88;;;15.60;88.70;;;;;;4824916;29;20046;-84
2023/05/24 10:50:22;;;;;;;12.38;2.92;;;15.60;89.00;;;;;;4824414;29;20115;-84
2023/05/24 10:52:50;;;;;;;9.88;2.60;;;15.60;88.80;;;;;;4808288;29;20392;-84
2023/05/24 10:55:18;;;;;;;8.48;2.35;;;15.70;90.20;;;;;;4825103;29;20054;-85
2023/05/24 10:57:44;;;;;;;8.70;2.40;;;15.70;89.10;;;;;;4813363;29;20103;-81
2023/05/24 11:00:26;;;;;;;6.25;2.30;;;15.80;90.50;;;;;;4824638;29;20062;-83
2023/05/24 11:03:01;;;;;;;6.38;2.30;;;15.80;91.80;;;;;;4822111;29;20066;-83
2023/05/24 11:05:34;;;;;;;9.23;2.78;;;15.90;91.70;;;;;;4823553;29;20066;-82
2023/05/24 11:08:00;;;;;;;10.90;2.67;;;16.00;91.90;;;;;;4824002;29;20050;-82
2023/05/24 11:10:30;;;;;;;7.95;2.45;;;16.00;91.00;;;;;;4822535;29;20137;-82
2023/05/24 11:13:00;;;;;;;9.32;2.70;;;16.10;92.20;;;;;;4820742;29;20058;-86
2023/05/24 11:15:28;;;;;;;9.75;2.95;;;16.10;92.30;;;;;;4838536;29;20054;-84
2023/05/24 11:18:07;;;;;;;8.70;2.50;;;16.10;92.30;;;;;;4833951;29;20073;-84
2023/05/24 11:20:34;;;;;;;12.45;3.00;;;16.20;91.80;;;;;;4829355;29;20492;-84
2023/05/24 11:23:08;;;;;;;8.63;2.53;;;16.20;91.30;;;;;;4827713;29;20095;-85
2023/05/24 11:25:36;;;;;;;10.10;2.70;;;16.20;91.50;;;;;;4825721;29;20044;-84
2023/05/24 11:28:03;;;;;;;10.20;3.03;;;16.20;91.90;;;;;;4830912;29;20117;-83
2023/05/24 11:30:31;;;;;;;9.50;2.45;;;16.10;90.90;;;;;;4841967;29;20085;-83
2023/05/24 11:32:57;;;;;;;10.85;2.83;;;16.20;92.30;;;;;;4830675;29;20050;-85
2023/05/24 11:35:26;;;;;;;11.30;2.63;;;16.20;93.00;;;;;;4827808;29;20042;-85
2023/05/24 11:38:01;;;;;;;10.27;2.90;;;16.30;93.40;;;;;;4841435;29;20056;-86
2023/05/24 11:40:27;;;;;;;9.73;2.67;;;16.30;93.40;;;;;;4842546;29;20042;-85
2023/05/24 11:42:53;;;;;;;12.40;3.00;;;16.30;92.40;;;;;;4842319;29;20046;-83
2023/05/24 11:45:20;;;;;;;12.15;3.03;;;16.20;90.90;;;;;;4840337;29;20514;-84
2023/05/24 11:47:48;;;;;;;12.57;2.97;;;16.20;91.20;;;;;;4838748;29;20122;-83
2023/05/24 11:50:22;;;;;;;14.80;3.40;;;16.10;92.30;;;;;;4829387;29;20046;-84
2023/05/24 11:52:48;;;;;;;13.20;3.00;;;16.10;90.70;;;;;;4818929;29;20137;-83
2023/05/24 11:55:15;;;;;;;9.98;2.70;;;16.10;90.00;;;;;;4839751;29;20136;-84
2023/05/24 11:57:49;;;;;;;12.60;3.20;;;16.00;90.90;;;;;;4839820;29;20066;-83
2023/05/24 12:00:23;;;;;;;13.10;3.03;;;16.00;91.60;;;;;;4841324;29;20112;-84
2023/05/24 12:02:49;;;;;;;10.32;2.85;;;16.00;91.40;;;;;;4840850;29;20049;-83
2023/05/24 12:05:18;;;;;;;12.48;3.00;;;16.00;91.10;;;;;;4841091;29;20050;-85
2023/05/24 12:07:47;;;;;;;11.55;2.60;;;16.00;91.80;;;;;;4841037;29;20049;-84
2023/05/24 12:10:16;;;;;;;13.50;2.92;;;16.00;90.40;;;;;;4832003;29;20057;-85
2023/05/24 12:12:46;;;;;;;8.48;2.70;;;15.90;90.30;;;;;;4838283;29;20511;-84
2023/05/24 12:15:13;;;;;;;9.43;2.58;;;15.80;91.10;;;;;;4835698;29;20054;-85
2023/05/24 12:17:40;;;;;;;11.82;2.42;;;15.80;92.10;;;;;;4823748;29;20042;-85
2023/05/24 12:20:08;;;;;;;9.90;2.78;;;15.90;92.50;;;;;;4823686;29;20047;-85
2023/05/24 12:22:34;;;;;;;10.52;2.42;;;15.90;92.60;;;;;;4823538;29;20092;-86
2023/05/24 12:25:02;;;;;;;10.65;2.45;;;15.90;92.50;;;;;;4823193;29;20084;-85
2023/05/24 12:27:30;;;;;;;9.35;2.53;;;15.90;92.00;;;;;;4823306;29;20094;-85
2023/05/24 12:29:55;;;;;;;15.00;2.97;;;15.90;91.30;;;;;;4822547;29;20054;-84
2023/05/24 12:32:21;;;;;;;10.00;2.60;;;15.90;91.30;;;;;;4822727;29;20539;-85
2023/05/24 12:34:48;;;;;;;9.15;2.80;;;16.00;91.90;;;;;;4826176;29;20109;-85
2023/05/24 12:37:14;;;;;;;9.63;2.97;;;16.00;92.20;;;;;;4820928;29;20070;-84
2023/05/24 12:39:41;;;;;;;13.23;2.95;;;16.10;93.10;;;;;;4825464;29;20154;-85